AIC278 VCBI-VIDP
Flight info
| Callsign | AIC278 |
|---|---|
| Flight time | 3h 9m |
| Altitude | 36000 |
| Route | ATETA1D ATETA T4 TTR W42 BIA/N0461F350 W57 LATID Q22 VIRAM W57 SAKRO Q22 HIA/N0460F360 W20 BPL Q24 PUKES W20 BUKLO Q24 BAVOX BAVOX6A |
| Aircraft | A321/M-SDE3FGHIRWY/LB1 |
Departure
| Time | 2026-04-28 11:49 |
|---|---|
| Airport | Bandaranaike International Colombo Airport (VCBI) |
Arrival
| Time | 2026-04-28 14:58 |
|---|---|
| Airport | Indira Gandhi International Airport (VIDP) |
| Time | Latitude | Longitude | Altitude | Speed | Heading |
|---|---|---|---|---|---|
| 2026-04-28 11:25 | 7.17888 | 79.88537 | 39 ft | 0 kts | 37° |
| 2026-04-28 11:28 | 7.17887 | 79.88537 | 38 ft | 0 kts | 37° |
| 2026-04-28 11:38 | 7.17882 | 79.88532 | 38 ft | 2 kts | 37° |
| 2026-04-28 11:38 | 7.17866 | 79.88520 | 36 ft | 3 kts | 38° |
| 2026-04-28 11:39 | 7.17851 | 79.88508 | 36 ft | 2 kts | 38° |
| 2026-04-28 11:39 | 7.17837 | 79.88499 | 35 ft | 3 kts | 12° |
| 2026-04-28 11:39 | 7.17821 | 79.88499 | 34 ft | 3 kts | 327° |
| 2026-04-28 11:39 | 7.17807 | 79.88511 | 36 ft | 2 kts | 308° |
| 2026-04-28 11:40 | 7.17802 | 79.88518 | 37 ft | 1 kts | 307° |
| 2026-04-28 11:40 | 7.17801 | 79.88518 | 37 ft | 0 kts | 307° |
| 2026-04-28 11:42 | 7.17817 | 79.88498 | 34 ft | 7 kts | 307° |
| 2026-04-28 11:42 | 7.17850 | 79.88454 | 38 ft | 9 kts | 307° |
| 2026-04-28 11:42 | 7.17917 | 79.88452 | 38 ft | 14 kts | 28° |
| 2026-04-28 11:42 | 7.17992 | 79.88508 | 36 ft | 13 kts | 38° |
| 2026-04-28 11:43 | 7.18066 | 79.88565 | 37 ft | 16 kts | 37° |
| 2026-04-28 11:43 | 7.18158 | 79.88636 | 36 ft | 16 kts | 37° |
| 2026-04-28 11:43 | 7.18245 | 79.88703 | 38 ft | 15 kts | 38° |
| 2026-04-28 11:43 | 7.18335 | 79.88772 | 38 ft | 19 kts | 37° |
| 2026-04-28 11:44 | 7.18460 | 79.88868 | 39 ft | 26 kts | 37° |
| 2026-04-28 11:44 | 7.18599 | 79.88975 | 39 ft | 25 kts | 37° |
| 2026-04-28 11:44 | 7.18732 | 79.89078 | 39 ft | 23 kts | 37° |
| 2026-04-28 11:44 | 7.18858 | 79.89174 | 39 ft | 22 kts | 37° |
| 2026-04-28 11:45 | 7.18978 | 79.89267 | 38 ft | 21 kts | 38° |
| 2026-04-28 11:45 | 7.19091 | 79.89354 | 38 ft | 20 kts | 37° |
| 2026-04-28 11:45 | 7.19197 | 79.89419 | 38 ft | 16 kts | 360° |
| 2026-04-28 11:45 | 7.19228 | 79.89401 | 38 ft | 0 kts | 307° |
| 2026-04-28 11:46 | 7.19231 | 79.89396 | 38 ft | 4 kts | 307° |
| 2026-04-28 11:46 | 7.19269 | 79.89345 | 38 ft | 13 kts | 306° |
| 2026-04-28 11:46 | 7.19285 | 79.89276 | 38 ft | 10 kts | 235° |
| 2026-04-28 11:47 | 7.19267 | 79.89261 | 38 ft | 0 kts | 215° |
| 2026-04-28 11:47 | 7.19266 | 79.89260 | 38 ft | 2 kts | 215° |
| 2026-04-28 11:48 | 7.19122 | 79.89151 | 39 ft | 60 kts | 217° |
| 2026-04-28 11:48 | 7.18621 | 79.88767 | 40 ft | 118 kts | 217° |
| 2026-04-28 11:48 | 7.17838 | 79.88164 | 42 ft | 163 kts | 217° |
| 2026-04-28 11:48 | 7.16908 | 79.87441 | 452 ft | 169 kts | 215° |
| 2026-04-28 11:49 | 7.15995 | 79.86715 | 1054 ft | 167 kts | 218° |
| 2026-04-28 11:49 | 7.15183 | 79.85868 | 1592 ft | 174 kts | 234° |
| 2026-04-28 11:49 | 7.14741 | 79.84714 | 1971 ft | 183 kts | 262° |
| 2026-04-28 11:49 | 7.14981 | 79.83440 | 2346 ft | 192 kts | 295° |
| 2026-04-28 11:50 | 7.15893 | 79.82447 | 2737 ft | 199 kts | 326° |
| 2026-04-28 11:50 | 7.17247 | 79.82026 | 2979 ft | 210 kts | 356° |
| 2026-04-28 11:50 | 7.18731 | 79.81957 | 3272 ft | 218 kts | 358° |
| 2026-04-28 11:50 | 7.19757 | 79.81902 | 3356 ft | 228 kts | 356° |
| 2026-04-28 11:51 | 7.22139 | 79.81721 | 3508 ft | 256 kts | 355° |
| 2026-04-28 11:51 | 7.23992 | 79.81566 | 3719 ft | 276 kts | 355° |
| 2026-04-28 11:51 | 7.25923 | 79.81406 | 4308 ft | 281 kts | 355° |
| 2026-04-28 11:51 | 7.27884 | 79.81244 | 4947 ft | 284 kts | 355° |
| 2026-04-28 11:52 | 7.29860 | 79.81084 | 5587 ft | 286 kts | 355° |
| 2026-04-28 11:52 | 7.31855 | 79.80921 | 6199 ft | 288 kts | 356° |
| 2026-04-28 11:52 | 7.33860 | 79.80758 | 6800 ft | 290 kts | 356° |
| 2026-04-28 11:52 | 7.35884 | 79.80595 | 7395 ft | 292 kts | 356° |
| 2026-04-28 11:53 | 7.37918 | 79.80430 | 7989 ft | 295 kts | 356° |
| 2026-04-28 11:53 | 7.39973 | 79.80264 | 8557 ft | 298 kts | 356° |
| 2026-04-28 11:53 | 7.42046 | 79.80097 | 9125 ft | 300 kts | 356° |
| 2026-04-28 11:53 | 7.44133 | 79.79933 | 9693 ft | 302 kts | 356° |
| 2026-04-28 11:54 | 7.46241 | 79.79767 | 10155 ft | 307 kts | 356° |
| 2026-04-28 11:54 | 7.48435 | 79.79595 | 10279 ft | 325 kts | 356° |
| 2026-04-28 11:54 | 7.50749 | 79.79411 | 10402 ft | 341 kts | 356° |
| 2026-04-28 11:54 | 7.53170 | 79.79219 | 10543 ft | 356 kts | 356° |
| 2026-04-28 11:55 | 7.55631 | 79.79019 | 10908 ft | 361 kts | 356° |
| 2026-04-28 11:55 | 7.58143 | 79.78817 | 11376 ft | 364 kts | 356° |
| 2026-04-28 11:55 | 7.60677 | 79.78612 | 11866 ft | 366 kts | 356° |
| 2026-04-28 11:55 | 7.63220 | 79.78405 | 12359 ft | 368 kts | 356° |
| 2026-04-28 11:56 | 7.65779 | 79.78199 | 12854 ft | 370 kts | 356° |
| 2026-04-28 11:56 | 7.68355 | 79.77993 | 13335 ft | 372 kts | 356° |
| 2026-04-28 11:56 | 7.70945 | 79.77789 | 13791 ft | 374 kts | 356° |
| 2026-04-28 11:56 | 7.73550 | 79.77584 | 14208 ft | 376 kts | 356° |
| 2026-04-28 11:57 | 7.76172 | 79.77379 | 14603 ft | 379 kts | 357° |
| 2026-04-28 11:57 | 7.78810 | 79.77171 | 14994 ft | 382 kts | 356° |
| 2026-04-28 11:57 | 7.81467 | 79.76959 | 15373 ft | 384 kts | 357° |
| 2026-04-28 11:57 | 7.84140 | 79.76744 | 15755 ft | 387 kts | 356° |
| 2026-04-28 11:58 | 7.86826 | 79.76527 | 16133 ft | 389 kts | 356° |
| 2026-04-28 11:58 | 7.89539 | 79.76307 | 16500 ft | 391 kts | 356° |
| 2026-04-28 11:58 | 7.92261 | 79.76084 | 16861 ft | 394 kts | 356° |
| 2026-04-28 11:58 | 7.95000 | 79.75862 | 17228 ft | 396 kts | 356° |
| 2026-04-28 11:59 | 7.97760 | 79.75640 | 17578 ft | 399 kts | 357° |
| 2026-04-28 11:59 | 8.00507 | 79.75419 | 17907 ft | 401 kts | 357° |
| 2026-04-28 11:59 | 8.03296 | 79.75197 | 18224 ft | 403 kts | 357° |
| 2026-04-28 11:59 | 8.06100 | 79.74976 | 18499 ft | 405 kts | 357° |
| 2026-04-28 12:00 | 8.08920 | 79.74752 | 18773 ft | 407 kts | 357° |
| 2026-04-28 12:00 | 8.11747 | 79.74526 | 19037 ft | 408 kts | 357° |
| 2026-04-28 12:00 | 8.14585 | 79.74299 | 19302 ft | 410 kts | 357° |
| 2026-04-28 12:00 | 8.17447 | 79.74068 | 19557 ft | 412 kts | 357° |
| 2026-04-28 12:01 | 8.20305 | 79.73837 | 19806 ft | 413 kts | 357° |
| 2026-04-28 12:01 | 8.23147 | 79.73608 | 20056 ft | 415 kts | 357° |
| 2026-04-28 12:01 | 8.26028 | 79.73376 | 20304 ft | 416 kts | 357° |
| 2026-04-28 12:01 | 8.28920 | 79.73145 | 20547 ft | 418 kts | 357° |
| 2026-04-28 12:02 | 8.31821 | 79.72914 | 20788 ft | 419 kts | 357° |
| 2026-04-28 12:02 | 8.34734 | 79.72681 | 21029 ft | 421 kts | 357° |
| 2026-04-28 12:02 | 8.37660 | 79.72445 | 21252 ft | 422 kts | 357° |
| 2026-04-28 12:02 | 8.40593 | 79.72209 | 21489 ft | 424 kts | 357° |
| 2026-04-28 12:03 | 8.43540 | 79.71974 | 21731 ft | 426 kts | 357° |
| 2026-04-28 12:03 | 8.46505 | 79.71737 | 21973 ft | 427 kts | 357° |
| 2026-04-28 12:03 | 8.49470 | 79.71500 | 22220 ft | 429 kts | 357° |
| 2026-04-28 12:03 | 8.52453 | 79.71259 | 22463 ft | 431 kts | 357° |
| 2026-04-28 12:04 | 8.55448 | 79.71015 | 22706 ft | 432 kts | 357° |
| 2026-04-28 12:04 | 8.58452 | 79.70770 | 22946 ft | 434 kts | 357° |
| 2026-04-28 12:04 | 8.61468 | 79.70525 | 23190 ft | 436 kts | 357° |
| 2026-04-28 12:04 | 8.64497 | 79.70282 | 23415 ft | 437 kts | 357° |
| 2026-04-28 12:05 | 8.67538 | 79.70038 | 23623 ft | 439 kts | 357° |
| 2026-04-28 12:05 | 8.70583 | 79.69791 | 23830 ft | 440 kts | 357° |
| 2026-04-28 12:05 | 8.73645 | 79.69545 | 24049 ft | 442 kts | 357° |
| 2026-04-28 12:05 | 8.76714 | 79.69303 | 24272 ft | 443 kts | 357° |
| 2026-04-28 12:06 | 8.79795 | 79.69060 | 24479 ft | 444 kts | 357° |
| 2026-04-28 12:06 | 8.82875 | 79.68816 | 24680 ft | 445 kts | 357° |
| 2026-04-28 12:06 | 8.84923 | 79.68654 | 24805 ft | 446 kts | 357° |
| 2026-04-28 12:06 | 8.88016 | 79.68405 | 24991 ft | 447 kts | 357° |
| 2026-04-28 12:07 | 8.91119 | 79.68151 | 25176 ft | 448 kts | 357° |
| 2026-04-28 12:07 | 8.94232 | 79.67897 | 25349 ft | 449 kts | 357° |
| 2026-04-28 12:07 | 8.97347 | 79.67646 | 25529 ft | 450 kts | 357° |
| 2026-04-28 12:07 | 9.01485 | 79.67316 | 25749 ft | 451 kts | 357° |
| 2026-04-28 12:08 | 9.04627 | 79.67062 | 25924 ft | 452 kts | 357° |
| 2026-04-28 12:08 | 9.07766 | 79.66805 | 26090 ft | 453 kts | 357° |
| 2026-04-28 12:08 | 9.10915 | 79.66550 | 26254 ft | 454 kts | 357° |
| 2026-04-28 12:08 | 9.14071 | 79.66296 | 26418 ft | 455 kts | 357° |
| 2026-04-28 12:09 | 9.17237 | 79.66045 | 26581 ft | 456 kts | 357° |
| 2026-04-28 12:09 | 9.19335 | 79.65879 | 26685 ft | 457 kts | 357° |
| 2026-04-28 12:09 | 9.22513 | 79.65624 | 26848 ft | 458 kts | 356° |
| 2026-04-28 12:09 | 9.25693 | 79.65362 | 26995 ft | 459 kts | 356° |
| 2026-04-28 12:10 | 9.28876 | 79.65017 | 27144 ft | 461 kts | 351° |
| 2026-04-28 12:10 | 9.32965 | 79.63832 | 27338 ft | 464 kts | 338° |
| 2026-04-28 12:10 | 9.34939 | 79.62879 | 27433 ft | 466 kts | 332° |
| 2026-04-28 12:10 | 9.37694 | 79.61160 | 27569 ft | 468 kts | 328° |
| 2026-04-28 12:11 | 9.40459 | 79.59394 | 27730 ft | 468 kts | 328° |
| 2026-04-28 12:11 | 9.43226 | 79.57639 | 27881 ft | 469 kts | 329° |
| 2026-04-28 12:11 | 9.45958 | 79.55912 | 28023 ft | 470 kts | 329° |
| 2026-04-28 12:11 | 9.48734 | 79.54157 | 28167 ft | 471 kts | 329° |
| 2026-04-28 12:12 | 9.51512 | 79.52396 | 28306 ft | 471 kts | 329° |
| 2026-04-28 12:12 | 9.54294 | 79.50631 | 28443 ft | 472 kts | 328° |
| 2026-04-28 12:12 | 9.57084 | 79.48863 | 28574 ft | 473 kts | 328° |
| 2026-04-28 12:12 | 9.59876 | 79.47095 | 28705 ft | 473 kts | 328° |
| 2026-04-28 12:13 | 9.62670 | 79.45326 | 28836 ft | 473 kts | 329° |
| 2026-04-28 12:13 | 9.65580 | 79.43776 | 28962 ft | 473 kts | 334° |
| 2026-04-28 12:13 | 9.68545 | 79.42316 | 29089 ft | 473 kts | 335° |
| 2026-04-28 12:13 | 9.71520 | 79.40881 | 29221 ft | 473 kts | 335° |
| 2026-04-28 12:14 | 9.74469 | 79.39471 | 29346 ft | 473 kts | 335° |
| 2026-04-28 12:14 | 9.77482 | 79.38031 | 29475 ft | 473 kts | 335° |
| 2026-04-28 12:14 | 9.80412 | 79.36621 | 29610 ft | 473 kts | 335° |
| 2026-04-28 12:14 | 9.83418 | 79.35166 | 29747 ft | 472 kts | 335° |
| 2026-04-28 12:15 | 9.86380 | 79.33726 | 29861 ft | 472 kts | 335° |
| 2026-04-28 12:15 | 9.89301 | 79.32308 | 29989 ft | 472 kts | 335° |
| 2026-04-28 12:15 | 9.92266 | 79.30870 | 30091 ft | 471 kts | 335° |
| 2026-04-28 12:15 | 9.95225 | 79.29437 | 30197 ft | 471 kts | 335° |
| 2026-04-28 12:16 | 9.98192 | 79.27998 | 30312 ft | 471 kts | 334° |
| 2026-04-28 12:16 | 10.01147 | 79.26564 | 30422 ft | 471 kts | 334° |
| 2026-04-28 12:16 | 10.04102 | 79.25130 | 30538 ft | 471 kts | 334° |
| 2026-04-28 12:16 | 10.07054 | 79.23698 | 30653 ft | 471 kts | 334° |
| 2026-04-28 12:17 | 10.10011 | 79.22266 | 30765 ft | 470 kts | 334° |
| 2026-04-28 12:17 | 10.12939 | 79.20848 | 30875 ft | 470 kts | 334° |
| 2026-04-28 12:17 | 10.15888 | 79.19413 | 30992 ft | 470 kts | 334° |
| 2026-04-28 12:17 | 10.18834 | 79.17974 | 31102 ft | 470 kts | 334° |
| 2026-04-28 12:18 | 10.21787 | 79.16535 | 31221 ft | 470 kts | 334° |
| 2026-04-28 12:18 | 10.24737 | 79.15101 | 31339 ft | 469 kts | 334° |
| 2026-04-28 12:18 | 10.27689 | 79.13668 | 31455 ft | 469 kts | 334° |
| 2026-04-28 12:18 | 10.30632 | 79.12239 | 31578 ft | 469 kts | 334° |
| 2026-04-28 12:19 | 10.33578 | 79.10808 | 31688 ft | 469 kts | 334° |
| 2026-04-28 12:19 | 10.36519 | 79.09376 | 31809 ft | 469 kts | 334° |
| 2026-04-28 12:19 | 10.39463 | 79.07945 | 31930 ft | 468 kts | 334° |
| 2026-04-28 12:19 | 10.42407 | 79.06514 | 32046 ft | 468 kts | 334° |
| 2026-04-28 12:20 | 10.45345 | 79.05082 | 32165 ft | 468 kts | 333° |
| 2026-04-28 12:20 | 10.48278 | 79.03650 | 32285 ft | 467 kts | 333° |
| 2026-04-28 12:20 | 10.51208 | 79.02222 | 32408 ft | 467 kts | 333° |
| 2026-04-28 12:20 | 10.54138 | 79.00795 | 32526 ft | 467 kts | 333° |
| 2026-04-28 12:21 | 10.57068 | 78.99369 | 32647 ft | 466 kts | 333° |
| 2026-04-28 12:21 | 10.59957 | 78.97963 | 32768 ft | 466 kts | 333° |
| 2026-04-28 12:21 | 10.62916 | 78.96523 | 32892 ft | 466 kts | 333° |
| 2026-04-28 12:21 | 10.65811 | 78.95115 | 33017 ft | 465 kts | 333° |
| 2026-04-28 12:22 | 10.68740 | 78.93687 | 33140 ft | 464 kts | 332° |
| 2026-04-28 12:22 | 10.71657 | 78.92263 | 33270 ft | 464 kts | 332° |
| 2026-04-28 12:22 | 10.74563 | 78.90842 | 33395 ft | 463 kts | 333° |
| 2026-04-28 12:22 | 10.77469 | 78.89420 | 33524 ft | 463 kts | 333° |
| 2026-04-28 12:23 | 10.80341 | 78.88017 | 33647 ft | 463 kts | 333° |
| 2026-04-28 12:23 | 10.83241 | 78.86600 | 33772 ft | 462 kts | 333° |
| 2026-04-28 12:23 | 10.86141 | 78.85187 | 33884 ft | 462 kts | 333° |
| 2026-04-28 12:23 | 10.89036 | 78.83777 | 33996 ft | 462 kts | 333° |
| 2026-04-28 12:24 | 10.91941 | 78.82363 | 34110 ft | 461 kts | 333° |
| 2026-04-28 12:24 | 10.94831 | 78.80954 | 34217 ft | 461 kts | 333° |
| 2026-04-28 12:24 | 10.97727 | 78.79540 | 34340 ft | 461 kts | 333° |
| 2026-04-28 12:24 | 11.00618 | 78.78125 | 34442 ft | 460 kts | 333° |
| 2026-04-28 12:25 | 11.03506 | 78.76710 | 34559 ft | 460 kts | 333° |
| 2026-04-28 12:25 | 11.06384 | 78.75301 | 34677 ft | 459 kts | 333° |
| 2026-04-28 12:25 | 11.09266 | 78.73890 | 34787 ft | 459 kts | 333° |
| 2026-04-28 12:25 | 11.12148 | 78.72481 | 34905 ft | 459 kts | 333° |
| 2026-04-28 12:26 | 11.15026 | 78.71076 | 35023 ft | 458 kts | 333° |
| 2026-04-28 12:26 | 11.17897 | 78.69672 | 35141 ft | 458 kts | 333° |
| 2026-04-28 12:26 | 11.20765 | 78.68265 | 35268 ft | 457 kts | 333° |
| 2026-04-28 12:26 | 11.23628 | 78.66860 | 35377 ft | 457 kts | 333° |
| 2026-04-28 12:27 | 11.26459 | 78.65470 | 35501 ft | 456 kts | 333° |
| 2026-04-28 12:27 | 11.29319 | 78.64069 | 35636 ft | 455 kts | 333° |
| 2026-04-28 12:27 | 11.32167 | 78.62677 | 35738 ft | 454 kts | 333° |
| 2026-04-28 12:27 | 11.35025 | 78.61282 | 35765 ft | 455 kts | 333° |
| 2026-04-28 12:28 | 11.40730 | 78.58488 | 35767 ft | 455 kts | 332° |
| 2026-04-28 12:28 | 11.46446 | 78.55683 | 35772 ft | 455 kts | 332° |
| 2026-04-28 12:29 | 11.54999 | 78.51470 | 35778 ft | 455 kts | 332° |
| 2026-04-28 12:30 | 11.60706 | 78.48671 | 35783 ft | 455 kts | 332° |
| 2026-04-28 12:30 | 11.66429 | 78.45871 | 35788 ft | 456 kts | 332° |
| 2026-04-28 12:31 | 11.72113 | 78.43080 | 35793 ft | 456 kts | 332° |
| 2026-04-28 12:31 | 11.77824 | 78.40267 | 35795 ft | 456 kts | 332° |
| 2026-04-28 12:32 | 11.83536 | 78.37449 | 35793 ft | 456 kts | 332° |
| 2026-04-28 12:32 | 11.89258 | 78.34636 | 35791 ft | 456 kts | 332° |
| 2026-04-28 12:33 | 11.94972 | 78.31825 | 35789 ft | 456 kts | 332° |
| 2026-04-28 12:33 | 12.00680 | 78.29014 | 35790 ft | 455 kts | 332° |
| 2026-04-28 12:34 | 12.06394 | 78.26198 | 35795 ft | 455 kts | 332° |
| 2026-04-28 12:34 | 12.12066 | 78.23400 | 35800 ft | 455 kts | 332° |
| 2026-04-28 12:35 | 12.17766 | 78.20587 | 35805 ft | 454 kts | 332° |
| 2026-04-28 12:35 | 12.23462 | 78.17783 | 35812 ft | 454 kts | 332° |
| 2026-04-28 12:36 | 12.29154 | 78.14978 | 35817 ft | 454 kts | 332° |
| 2026-04-28 12:36 | 12.34842 | 78.12170 | 35829 ft | 453 kts | 332° |
| 2026-04-28 12:37 | 12.40512 | 78.09363 | 35843 ft | 452 kts | 332° |
| 2026-04-28 12:37 | 12.46172 | 78.06558 | 35852 ft | 451 kts | 332° |
| 2026-04-28 12:38 | 12.51807 | 78.03771 | 35865 ft | 449 kts | 332° |
| 2026-04-28 12:38 | 12.57421 | 78.00994 | 35871 ft | 447 kts | 331° |
| 2026-04-28 12:39 | 12.62980 | 77.98238 | 35880 ft | 446 kts | 331° |
| 2026-04-28 12:39 | 12.68554 | 77.95482 | 35896 ft | 444 kts | 331° |
| 2026-04-28 12:40 | 12.74120 | 77.92728 | 35904 ft | 443 kts | 331° |
| 2026-04-28 12:40 | 12.79670 | 77.89976 | 35919 ft | 442 kts | 331° |
| 2026-04-28 12:41 | 12.85204 | 77.87233 | 35927 ft | 441 kts | 331° |
| 2026-04-28 12:41 | 12.90728 | 77.84484 | 35931 ft | 441 kts | 331° |
| 2026-04-28 12:42 | 12.96254 | 77.81733 | 35938 ft | 441 kts | 331° |
| 2026-04-28 12:42 | 13.01754 | 77.79002 | 35939 ft | 442 kts | 331° |
| 2026-04-28 12:43 | 13.07292 | 77.76253 | 35940 ft | 442 kts | 331° |
| 2026-04-28 12:43 | 13.12827 | 77.73501 | 35940 ft | 442 kts | 331° |
| 2026-04-28 12:44 | 13.18467 | 77.70957 | 35939 ft | 445 kts | 341° |
| 2026-04-28 12:44 | 13.23596 | 77.70258 | 35938 ft | 453 kts | 358° |
| 2026-04-28 12:45 | 13.30923 | 77.71477 | 35932 ft | 458 kts | 7° |
| 2026-04-28 12:45 | 13.37138 | 77.72718 | 35936 ft | 458 kts | 7° |
| 2026-04-28 12:46 | 13.43399 | 77.73962 | 35942 ft | 459 kts | 7° |
| 2026-04-28 12:46 | 13.49668 | 77.75213 | 35943 ft | 459 kts | 7° |
| 2026-04-28 12:47 | 13.55946 | 77.76472 | 35948 ft | 460 kts | 7° |
| 2026-04-28 12:47 | 13.62228 | 77.77722 | 35947 ft | 460 kts | 7° |
| 2026-04-28 12:48 | 13.68513 | 77.78972 | 35944 ft | 460 kts | 7° |
| 2026-04-28 12:48 | 13.73741 | 77.80026 | 35939 ft | 460 kts | 7° |
| 2026-04-28 12:49 | 13.81099 | 77.81518 | 35933 ft | 461 kts | 7° |
| 2026-04-28 12:49 | 13.87397 | 77.82782 | 35931 ft | 461 kts | 7° |
| 2026-04-28 12:50 | 13.93691 | 77.84039 | 35924 ft | 460 kts | 7° |
| 2026-04-28 12:50 | 13.99947 | 77.85288 | 35915 ft | 460 kts | 7° |
| 2026-04-28 12:51 | 14.06237 | 77.86548 | 35912 ft | 460 kts | 7° |
| 2026-04-28 12:51 | 14.12512 | 77.87811 | 35906 ft | 459 kts | 7° |
| 2026-04-28 12:52 | 14.18786 | 77.89081 | 35902 ft | 459 kts | 7° |
| 2026-04-28 12:52 | 14.25009 | 77.90342 | 35889 ft | 459 kts | 7° |
| 2026-04-28 12:53 | 14.31282 | 77.91601 | 35886 ft | 458 kts | 7° |
| 2026-04-28 12:53 | 14.36487 | 77.92643 | 35881 ft | 458 kts | 7° |
| 2026-04-28 12:54 | 14.43814 | 77.94123 | 35869 ft | 458 kts | 7° |
| 2026-04-28 12:54 | 14.49010 | 77.95166 | 35865 ft | 458 kts | 6° |
| 2026-04-28 12:55 | 14.55289 | 77.96266 | 35857 ft | 457 kts | 5° |
| 2026-04-28 12:55 | 14.61573 | 77.97267 | 35848 ft | 456 kts | 5° |
| 2026-04-28 12:56 | 14.67843 | 77.98284 | 35842 ft | 456 kts | 5° |
| 2026-04-28 12:56 | 14.74121 | 77.99347 | 35838 ft | 456 kts | 5° |
| 2026-04-28 12:57 | 14.80383 | 78.00432 | 35833 ft | 456 kts | 5° |
| 2026-04-28 12:57 | 14.86648 | 78.01498 | 35826 ft | 456 kts | 5° |
| 2026-04-28 12:58 | 14.92869 | 78.02546 | 35824 ft | 455 kts | 4° |
| 2026-04-28 12:58 | 14.99125 | 78.03596 | 35822 ft | 455 kts | 4° |
| 2026-04-28 12:59 | 15.05367 | 78.04656 | 35816 ft | 454 kts | 4° |
| 2026-04-28 12:59 | 15.11603 | 78.05724 | 35812 ft | 454 kts | 4° |
| 2026-04-28 13:00 | 15.17838 | 78.06786 | 35804 ft | 454 kts | 4° |
| 2026-04-28 13:00 | 15.24078 | 78.07841 | 35801 ft | 454 kts | 4° |
| 2026-04-28 13:01 | 15.30275 | 78.08895 | 35802 ft | 454 kts | 4° |
| 2026-04-28 13:01 | 15.36504 | 78.09964 | 35799 ft | 454 kts | 4° |
| 2026-04-28 13:02 | 15.42743 | 78.11007 | 35794 ft | 453 kts | 3° |
| 2026-04-28 13:02 | 15.48982 | 78.12016 | 35787 ft | 453 kts | 3° |
| 2026-04-28 13:03 | 15.55213 | 78.13032 | 35782 ft | 453 kts | 3° |
| 2026-04-28 13:03 | 15.61450 | 78.14061 | 35769 ft | 453 kts | 3° |
| 2026-04-28 13:04 | 15.67643 | 78.15086 | 35784 ft | 453 kts | 3° |
| 2026-04-28 13:04 | 15.73873 | 78.16116 | 35782 ft | 453 kts | 3° |
| 2026-04-28 13:05 | 15.80116 | 78.17134 | 35780 ft | 453 kts | 3° |
| 2026-04-28 13:05 | 15.86345 | 78.18145 | 35778 ft | 453 kts | 3° |
| 2026-04-28 13:06 | 15.92582 | 78.19159 | 35779 ft | 453 kts | 2° |
| 2026-04-28 13:06 | 15.98822 | 78.20176 | 35776 ft | 454 kts | 2° |
| 2026-04-28 13:07 | 16.05070 | 78.21200 | 35780 ft | 455 kts | 2° |
| 2026-04-28 13:07 | 16.11323 | 78.22218 | 35781 ft | 455 kts | 2° |
| 2026-04-28 13:08 | 16.17584 | 78.23238 | 35788 ft | 455 kts | 2° |
| 2026-04-28 13:08 | 16.23852 | 78.24270 | 35795 ft | 456 kts | 2° |
| 2026-04-28 13:09 | 16.30115 | 78.25292 | 35796 ft | 456 kts | 2° |
| 2026-04-28 13:09 | 16.36339 | 78.26304 | 35798 ft | 455 kts | 2° |
| 2026-04-28 13:10 | 16.42600 | 78.27335 | 35803 ft | 455 kts | 2° |
| 2026-04-28 13:10 | 16.48806 | 78.27612 | 35806 ft | 443 kts | 351° |
| 2026-04-28 13:11 | 16.54967 | 78.27282 | 35809 ft | 443 kts | 350° |
| 2026-04-28 13:11 | 16.61098 | 78.26952 | 35810 ft | 443 kts | 350° |
| 2026-04-28 13:12 | 16.67260 | 78.26624 | 35814 ft | 443 kts | 350° |
| 2026-04-28 13:12 | 16.73419 | 78.26286 | 35819 ft | 443 kts | 350° |
| 2026-04-28 13:13 | 16.79575 | 78.25949 | 35819 ft | 442 kts | 350° |
| 2026-04-28 13:13 | 16.85726 | 78.25612 | 35820 ft | 442 kts | 350° |
| 2026-04-28 13:14 | 16.91883 | 78.25285 | 35822 ft | 442 kts | 350° |
| 2026-04-28 13:14 | 16.97994 | 78.24961 | 35833 ft | 442 kts | 350° |
| 2026-04-28 13:15 | 17.04143 | 78.24626 | 35839 ft | 442 kts | 350° |
| 2026-04-28 13:15 | 17.10304 | 78.24292 | 35844 ft | 442 kts | 350° |
| 2026-04-28 13:16 | 17.16410 | 78.23731 | 35846 ft | 439 kts | 345° |
| 2026-04-28 13:16 | 17.22439 | 78.22796 | 35846 ft | 437 kts | 344° |
| 2026-04-28 13:17 | 17.26427 | 78.22144 | 35847 ft | 438 kts | 344° |
| 2026-04-28 13:17 | 17.34517 | 78.20938 | 35849 ft | 440 kts | 345° |
| 2026-04-28 13:18 | 17.40582 | 78.20097 | 35850 ft | 440 kts | 345° |
| 2026-04-28 13:18 | 17.46608 | 78.19261 | 35853 ft | 439 kts | 345° |
| 2026-04-28 13:19 | 17.52664 | 78.18405 | 35852 ft | 439 kts | 345° |
| 2026-04-28 13:19 | 17.58727 | 78.17544 | 35846 ft | 439 kts | 345° |
| 2026-04-28 13:20 | 17.64781 | 78.16680 | 35844 ft | 438 kts | 345° |
| 2026-04-28 13:20 | 17.70818 | 78.15819 | 35830 ft | 438 kts | 345° |
| 2026-04-28 13:21 | 17.76864 | 78.14958 | 35822 ft | 438 kts | 345° |
| 2026-04-28 13:21 | 17.82912 | 78.14101 | 35817 ft | 438 kts | 345° |
| 2026-04-28 13:22 | 17.88915 | 78.13249 | 35813 ft | 438 kts | 345° |
| 2026-04-28 13:22 | 17.94959 | 78.12382 | 35811 ft | 438 kts | 345° |
| 2026-04-28 13:23 | 18.01012 | 78.11512 | 35806 ft | 438 kts | 345° |
| 2026-04-28 13:23 | 18.07052 | 78.10649 | 35805 ft | 438 kts | 346° |
| 2026-04-28 13:24 | 18.13051 | 78.09795 | 35801 ft | 438 kts | 346° |
| 2026-04-28 13:24 | 18.19093 | 78.08927 | 35793 ft | 438 kts | 346° |
| 2026-04-28 13:25 | 18.25134 | 78.08062 | 35791 ft | 438 kts | 346° |
| 2026-04-28 13:25 | 18.31182 | 78.07200 | 35782 ft | 438 kts | 346° |
| 2026-04-28 13:26 | 18.37227 | 78.06337 | 35777 ft | 438 kts | 346° |
| 2026-04-28 13:26 | 18.43241 | 78.05475 | 35776 ft | 438 kts | 346° |
| 2026-04-28 13:27 | 18.49302 | 78.04599 | 35773 ft | 439 kts | 347° |
| 2026-04-28 13:27 | 18.55357 | 78.03733 | 35772 ft | 440 kts | 347° |
| 2026-04-28 13:28 | 18.61418 | 78.02861 | 35773 ft | 440 kts | 347° |
| 2026-04-28 13:28 | 18.67486 | 78.01988 | 35772 ft | 440 kts | 347° |
| 2026-04-28 13:29 | 18.73558 | 78.01114 | 35771 ft | 440 kts | 347° |
| 2026-04-28 13:29 | 18.79607 | 78.00239 | 35770 ft | 440 kts | 348° |
| 2026-04-28 13:30 | 18.85680 | 77.99365 | 35768 ft | 440 kts | 348° |
| 2026-04-28 13:30 | 18.91756 | 77.98489 | 35764 ft | 440 kts | 348° |
| 2026-04-28 13:31 | 19.00867 | 77.97177 | 35763 ft | 440 kts | 348° |
| 2026-04-28 13:31 | 19.06933 | 77.96302 | 35764 ft | 440 kts | 348° |
| 2026-04-28 13:32 | 19.12990 | 77.95427 | 35763 ft | 440 kts | 348° |
| 2026-04-28 13:32 | 19.19016 | 77.94559 | 35763 ft | 439 kts | 348° |
| 2026-04-28 13:33 | 19.25072 | 77.93680 | 35757 ft | 439 kts | 348° |
| 2026-04-28 13:33 | 19.31125 | 77.92802 | 35757 ft | 439 kts | 348° |
| 2026-04-28 13:34 | 19.37177 | 77.91924 | 35754 ft | 439 kts | 348° |
| 2026-04-28 13:34 | 19.42209 | 77.91190 | 35753 ft | 439 kts | 348° |
| 2026-04-28 13:35 | 19.49287 | 77.90163 | 35752 ft | 439 kts | 348° |
| 2026-04-28 13:35 | 19.55312 | 77.89289 | 35751 ft | 439 kts | 348° |
| 2026-04-28 13:36 | 19.61368 | 77.88411 | 35754 ft | 439 kts | 348° |
| 2026-04-28 13:36 | 19.67416 | 77.87526 | 35752 ft | 439 kts | 348° |
| 2026-04-28 13:37 | 19.73469 | 77.86645 | 35751 ft | 438 kts | 348° |
| 2026-04-28 13:37 | 19.79513 | 77.85761 | 35751 ft | 438 kts | 348° |
| 2026-04-28 13:38 | 19.85560 | 77.84880 | 35748 ft | 438 kts | 348° |
| 2026-04-28 13:38 | 19.90576 | 77.84151 | 35749 ft | 438 kts | 348° |
| 2026-04-28 13:39 | 19.97601 | 77.83127 | 35747 ft | 437 kts | 348° |
| 2026-04-28 13:39 | 20.02618 | 77.82391 | 35747 ft | 437 kts | 348° |
| 2026-04-28 13:40 | 20.08648 | 77.81507 | 35742 ft | 437 kts | 348° |
| 2026-04-28 13:40 | 20.15653 | 77.80489 | 35742 ft | 437 kts | 348° |
| 2026-04-28 13:41 | 20.20697 | 77.79747 | 35750 ft | 437 kts | 348° |
| 2026-04-28 13:41 | 20.26718 | 77.78855 | 35743 ft | 437 kts | 348° |
| 2026-04-28 13:42 | 20.32738 | 77.77973 | 35746 ft | 437 kts | 348° |
| 2026-04-28 13:42 | 20.38753 | 77.77090 | 35739 ft | 436 kts | 348° |
| 2026-04-28 13:43 | 20.44772 | 77.76203 | 35750 ft | 437 kts | 348° |
| 2026-04-28 13:43 | 20.50788 | 77.75310 | 35745 ft | 437 kts | 348° |
| 2026-04-28 13:44 | 20.56782 | 77.74431 | 35746 ft | 437 kts | 348° |
| 2026-04-28 13:44 | 20.62824 | 77.73541 | 35750 ft | 437 kts | 348° |
| 2026-04-28 13:45 | 20.68817 | 77.72659 | 35744 ft | 437 kts | 348° |
| 2026-04-28 13:45 | 20.74844 | 77.71777 | 35744 ft | 437 kts | 348° |
| 2026-04-28 13:46 | 20.80879 | 77.70882 | 35752 ft | 437 kts | 348° |
| 2026-04-28 13:46 | 20.86905 | 77.69987 | 35754 ft | 437 kts | 348° |
| 2026-04-28 13:47 | 20.92928 | 77.69092 | 35749 ft | 437 kts | 348° |
| 2026-04-28 13:47 | 20.98941 | 77.68205 | 35755 ft | 436 kts | 348° |
| 2026-04-28 13:48 | 21.04919 | 77.67326 | 35760 ft | 436 kts | 348° |
| 2026-04-28 13:48 | 21.10935 | 77.66434 | 35761 ft | 436 kts | 348° |
| 2026-04-28 13:49 | 21.16936 | 77.65537 | 35766 ft | 436 kts | 348° |
| 2026-04-28 13:49 | 21.22948 | 77.64642 | 35771 ft | 435 kts | 348° |
| 2026-04-28 13:50 | 21.28954 | 77.63758 | 35774 ft | 435 kts | 348° |
| 2026-04-28 13:50 | 21.34964 | 77.62861 | 37321 ft | 436 kts | 350° |
| 2026-04-28 13:51 | 21.41038 | 77.61946 | 37266 ft | 446 kts | 352° |
| 2026-04-28 13:51 | 21.44121 | 77.61485 | 37118 ft | 449 kts | 352° |
| 2026-04-28 13:51 | 21.47209 | 77.61024 | 36863 ft | 449 kts | 352° |
| 2026-04-28 13:52 | 21.50308 | 77.60566 | 36616 ft | 449 kts | 352° |
| 2026-04-28 13:52 | 21.53401 | 77.60110 | 36364 ft | 449 kts | 352° |
| 2026-04-28 13:52 | 21.56500 | 77.59651 | 36114 ft | 449 kts | 352° |
| 2026-04-28 13:52 | 21.59556 | 77.59193 | 35969 ft | 448 kts | 352° |
| 2026-04-28 13:53 | 21.65746 | 77.58263 | 36009 ft | 449 kts | 352° |
| 2026-04-28 13:53 | 21.71945 | 77.57338 | 36009 ft | 450 kts | 352° |
| 2026-04-28 13:54 | 21.78141 | 77.56406 | 36008 ft | 450 kts | 352° |
| 2026-04-28 13:54 | 21.84338 | 77.55476 | 36009 ft | 450 kts | 352° |
| 2026-04-28 13:55 | 21.90538 | 77.54542 | 36012 ft | 450 kts | 352° |
| 2026-04-28 13:55 | 21.96742 | 77.53612 | 36015 ft | 450 kts | 352° |
| 2026-04-28 13:56 | 22.02953 | 77.52687 | 36018 ft | 450 kts | 352° |
| 2026-04-28 13:56 | 22.09161 | 77.51755 | 36020 ft | 450 kts | 352° |
| 2026-04-28 13:57 | 22.15370 | 77.50819 | 36022 ft | 450 kts | 352° |
| 2026-04-28 13:57 | 22.21535 | 77.49895 | 36023 ft | 450 kts | 352° |
| 2026-04-28 13:58 | 22.27748 | 77.48953 | 36024 ft | 450 kts | 352° |
| 2026-04-28 13:58 | 22.33958 | 77.48018 | 36025 ft | 450 kts | 352° |
| 2026-04-28 13:59 | 22.40166 | 77.47077 | 36025 ft | 450 kts | 352° |
| 2026-04-28 13:59 | 22.46380 | 77.46144 | 36025 ft | 450 kts | 352° |
| 2026-04-28 14:00 | 22.52586 | 77.45202 | 36025 ft | 451 kts | 352° |
| 2026-04-28 14:00 | 22.58799 | 77.44264 | 36026 ft | 451 kts | 352° |
| 2026-04-28 14:01 | 22.65008 | 77.43323 | 36027 ft | 451 kts | 352° |
| 2026-04-28 14:01 | 22.71218 | 77.42376 | 36027 ft | 451 kts | 352° |
| 2026-04-28 14:02 | 22.77430 | 77.41431 | 36026 ft | 451 kts | 352° |
| 2026-04-28 14:02 | 22.83604 | 77.40495 | 36027 ft | 451 kts | 352° |
| 2026-04-28 14:03 | 22.89816 | 77.39550 | 36027 ft | 451 kts | 352° |
| 2026-04-28 14:03 | 22.96033 | 77.38595 | 36028 ft | 451 kts | 352° |
| 2026-04-28 14:04 | 23.02245 | 77.37656 | 36028 ft | 451 kts | 352° |
| 2026-04-28 14:04 | 23.08463 | 77.36712 | 36028 ft | 451 kts | 352° |
| 2026-04-28 14:05 | 23.14672 | 77.35761 | 36028 ft | 451 kts | 352° |
| 2026-04-28 14:05 | 23.20883 | 77.34810 | 36028 ft | 451 kts | 352° |
| 2026-04-28 14:06 | 23.27055 | 77.33863 | 36029 ft | 451 kts | 352° |
| 2026-04-28 14:06 | 23.33308 | 77.33431 | 36027 ft | 451 kts | 357° |
| 2026-04-28 14:07 | 23.39577 | 77.33144 | 36028 ft | 451 kts | 357° |
| 2026-04-28 14:07 | 23.45850 | 77.32855 | 36030 ft | 451 kts | 357° |
| 2026-04-28 14:08 | 23.52120 | 77.32565 | 36030 ft | 451 kts | 357° |
| 2026-04-28 14:08 | 23.58388 | 77.32272 | 36030 ft | 451 kts | 357° |
| 2026-04-28 14:09 | 23.64665 | 77.31980 | 36030 ft | 451 kts | 357° |
| 2026-04-28 14:09 | 23.70931 | 77.31682 | 36031 ft | 451 kts | 357° |
| 2026-04-28 14:10 | 23.77217 | 77.31450 | 36010 ft | 453 kts | 359° |
| 2026-04-28 14:10 | 23.83518 | 77.31207 | 36013 ft | 453 kts | 357° |
| 2026-04-28 14:11 | 23.89812 | 77.30923 | 36030 ft | 453 kts | 357° |
| 2026-04-28 14:11 | 23.96108 | 77.30657 | 36033 ft | 452 kts | 358° |
| 2026-04-28 14:12 | 23.99226 | 77.30529 | 34787 ft | 444 kts | 352° |
| 2026-04-28 14:12 | 24.02306 | 77.30399 | 34969 ft | 441 kts | 353° |
| 2026-04-28 14:12 | 24.05366 | 77.30265 | 35146 ft | 439 kts | 353° |
| 2026-04-28 14:12 | 24.08417 | 77.30126 | 35330 ft | 439 kts | 352° |
| 2026-04-28 14:13 | 24.11428 | 77.29986 | 35509 ft | 438 kts | 352° |
| 2026-04-28 14:13 | 24.14471 | 77.29844 | 35699 ft | 438 kts | 352° |
| 2026-04-28 14:13 | 24.20603 | 77.29566 | 35761 ft | 438 kts | 353° |
| 2026-04-28 14:14 | 24.26648 | 77.29311 | 35769 ft | 438 kts | 353° |
| 2026-04-28 14:14 | 24.32742 | 77.29045 | 35773 ft | 438 kts | 353° |
| 2026-04-28 14:15 | 24.38845 | 77.28768 | 35773 ft | 439 kts | 353° |
| 2026-04-28 14:15 | 24.44952 | 77.28492 | 35774 ft | 439 kts | 353° |
| 2026-04-28 14:16 | 24.51069 | 77.28224 | 35773 ft | 440 kts | 353° |
| 2026-04-28 14:16 | 24.57183 | 77.27948 | 35769 ft | 440 kts | 353° |
| 2026-04-28 14:17 | 24.63282 | 77.27669 | 35767 ft | 440 kts | 353° |
| 2026-04-28 14:17 | 24.69405 | 77.27395 | 35762 ft | 440 kts | 353° |
| 2026-04-28 14:18 | 24.75533 | 77.27128 | 35765 ft | 440 kts | 353° |
| 2026-04-28 14:18 | 24.81675 | 77.26852 | 35752 ft | 441 kts | 353° |
| 2026-04-28 14:19 | 24.87800 | 77.26576 | 35758 ft | 441 kts | 353° |
| 2026-04-28 14:19 | 24.93932 | 77.26296 | 35752 ft | 441 kts | 353° |
| 2026-04-28 14:20 | 25.00059 | 77.26014 | 35746 ft | 441 kts | 353° |
| 2026-04-28 14:20 | 25.06145 | 77.25737 | 35743 ft | 441 kts | 353° |
| 2026-04-28 14:21 | 25.12277 | 77.25468 | 35740 ft | 441 kts | 353° |
| 2026-04-28 14:21 | 25.18415 | 77.25194 | 35739 ft | 441 kts | 353° |
| 2026-04-28 14:22 | 25.24541 | 77.24885 | 35736 ft | 440 kts | 352° |
| 2026-04-28 14:22 | 25.30621 | 77.24263 | 35733 ft | 438 kts | 349° |
| 2026-04-28 14:23 | 25.36682 | 77.23466 | 35731 ft | 438 kts | 349° |
| 2026-04-28 14:23 | 25.42759 | 77.22703 | 35729 ft | 439 kts | 350° |
| 2026-04-28 14:24 | 25.48833 | 77.22008 | 35729 ft | 439 kts | 350° |
| 2026-04-28 14:24 | 25.54876 | 77.21331 | 35722 ft | 439 kts | 350° |
| 2026-04-28 14:25 | 25.60953 | 77.20640 | 35723 ft | 439 kts | 350° |
| 2026-04-28 14:25 | 25.67038 | 77.19934 | 35717 ft | 439 kts | 350° |
| 2026-04-28 14:26 | 25.73115 | 77.19230 | 35713 ft | 439 kts | 350° |
| 2026-04-28 14:26 | 25.79196 | 77.18524 | 35717 ft | 440 kts | 350° |
| 2026-04-28 14:27 | 25.85287 | 77.17812 | 35709 ft | 440 kts | 350° |
| 2026-04-28 14:27 | 25.90349 | 77.17225 | 35709 ft | 440 kts | 351° |
| 2026-04-28 14:28 | 25.96447 | 77.16522 | 35705 ft | 440 kts | 351° |
| 2026-04-28 14:28 | 26.02536 | 77.15819 | 35700 ft | 440 kts | 351° |
| 2026-04-28 14:29 | 26.08629 | 77.15109 | 35700 ft | 440 kts | 351° |
| 2026-04-28 14:29 | 26.14716 | 77.14391 | 35702 ft | 440 kts | 351° |
| 2026-04-28 14:30 | 26.20805 | 77.13678 | 35703 ft | 440 kts | 351° |
| 2026-04-28 14:30 | 26.26891 | 77.12972 | 35702 ft | 440 kts | 351° |
| 2026-04-28 14:31 | 26.32982 | 77.12264 | 35704 ft | 440 kts | 351° |
| 2026-04-28 14:31 | 26.39069 | 77.11551 | 35702 ft | 440 kts | 351° |
| 2026-04-28 14:32 | 26.45163 | 77.10842 | 35706 ft | 440 kts | 351° |
| 2026-04-28 14:32 | 26.51250 | 77.10123 | 35704 ft | 440 kts | 351° |
| 2026-04-28 14:33 | 26.57295 | 77.09406 | 35704 ft | 440 kts | 351° |
| 2026-04-28 14:33 | 26.60342 | 77.09049 | 35553 ft | 440 kts | 351° |
| 2026-04-28 14:33 | 26.63392 | 77.08693 | 35321 ft | 440 kts | 351° |
| 2026-04-28 14:34 | 26.69493 | 77.07980 | 34853 ft | 442 kts | 351° |
| 2026-04-28 14:34 | 26.72553 | 77.07621 | 34619 ft | 442 kts | 351° |
| 2026-04-28 14:34 | 26.75617 | 77.07257 | 34389 ft | 443 kts | 351° |
| 2026-04-28 14:35 | 26.78695 | 77.06890 | 34161 ft | 444 kts | 351° |
| 2026-04-28 14:35 | 26.81774 | 77.06524 | 33933 ft | 446 kts | 351° |
| 2026-04-28 14:35 | 26.84862 | 77.06160 | 33708 ft | 447 kts | 351° |
| 2026-04-28 14:35 | 26.87959 | 77.05797 | 33457 ft | 448 kts | 352° |
| 2026-04-28 14:36 | 26.91063 | 77.05434 | 33196 ft | 448 kts | 351° |
| 2026-04-28 14:36 | 26.94166 | 77.05069 | 32939 ft | 449 kts | 351° |
| 2026-04-28 14:36 | 26.97276 | 77.04699 | 32682 ft | 449 kts | 351° |
| 2026-04-28 14:36 | 27.00386 | 77.04326 | 32395 ft | 448 kts | 351° |
| 2026-04-28 14:37 | 27.03476 | 77.03957 | 31821 ft | 445 kts | 351° |
| 2026-04-28 14:37 | 27.06539 | 77.03595 | 31246 ft | 441 kts | 351° |
| 2026-04-28 14:37 | 27.08559 | 77.03357 | 30875 ft | 439 kts | 351° |
| 2026-04-28 14:37 | 27.12606 | 77.02877 | 30130 ft | 435 kts | 351° |
| 2026-04-28 14:38 | 27.15612 | 77.02521 | 29544 ft | 433 kts | 351° |
| 2026-04-28 14:38 | 27.18590 | 77.02169 | 28977 ft | 428 kts | 351° |
| 2026-04-28 14:38 | 27.21532 | 77.01822 | 28443 ft | 423 kts | 351° |
| 2026-04-28 14:38 | 27.24437 | 77.01478 | 27914 ft | 418 kts | 351° |
| 2026-04-28 14:39 | 27.27317 | 77.01137 | 27390 ft | 413 kts | 351° |
| 2026-04-28 14:39 | 27.30155 | 77.00802 | 26882 ft | 408 kts | 351° |
| 2026-04-28 14:39 | 27.32953 | 77.00472 | 26391 ft | 402 kts | 351° |
| 2026-04-28 14:39 | 27.35720 | 77.00144 | 25894 ft | 397 kts | 351° |
| 2026-04-28 14:40 | 27.38409 | 76.99827 | 25434 ft | 391 kts | 351° |
| 2026-04-28 14:40 | 27.40226 | 76.99612 | 25125 ft | 387 kts | 351° |
| 2026-04-28 14:40 | 27.43743 | 76.99193 | 24527 ft | 380 kts | 351° |
| 2026-04-28 14:40 | 27.46351 | 76.98879 | 24088 ft | 375 kts | 351° |
| 2026-04-28 14:41 | 27.48928 | 76.98568 | 23650 ft | 371 kts | 351° |
| 2026-04-28 14:41 | 27.51480 | 76.98263 | 23221 ft | 367 kts | 351° |
| 2026-04-28 14:41 | 27.54013 | 76.97962 | 22748 ft | 362 kts | 351° |
| 2026-04-28 14:41 | 27.56497 | 76.97665 | 22323 ft | 356 kts | 351° |
| 2026-04-28 14:42 | 27.58947 | 76.97372 | 21914 ft | 352 kts | 350° |
| 2026-04-28 14:42 | 27.61378 | 76.97081 | 21487 ft | 350 kts | 350° |
| 2026-04-28 14:42 | 27.63795 | 76.96791 | 21078 ft | 348 kts | 350° |
| 2026-04-28 14:42 | 27.66198 | 76.96502 | 20664 ft | 346 kts | 350° |
| 2026-04-28 14:43 | 27.68590 | 76.96213 | 20235 ft | 345 kts | 350° |
| 2026-04-28 14:43 | 27.70948 | 76.95931 | 19817 ft | 343 kts | 350° |
| 2026-04-28 14:43 | 27.73319 | 76.95646 | 19390 ft | 341 kts | 350° |
| 2026-04-28 14:43 | 27.75669 | 76.95363 | 18967 ft | 339 kts | 349° |
| 2026-04-28 14:44 | 27.78017 | 76.95080 | 18535 ft | 338 kts | 349° |
| 2026-04-28 14:44 | 27.80343 | 76.94800 | 18117 ft | 336 kts | 349° |
| 2026-04-28 14:44 | 27.82663 | 76.94521 | 17667 ft | 334 kts | 349° |
| 2026-04-28 14:44 | 27.84969 | 76.94245 | 17230 ft | 332 kts | 349° |
| 2026-04-28 14:45 | 27.87259 | 76.93972 | 16833 ft | 330 kts | 349° |
| 2026-04-28 14:45 | 27.89537 | 76.93700 | 16429 ft | 328 kts | 349° |
| 2026-04-28 14:45 | 27.91810 | 76.93430 | 16026 ft | 327 kts | 349° |
| 2026-04-28 14:45 | 27.94064 | 76.93161 | 15625 ft | 325 kts | 349° |
| 2026-04-28 14:46 | 27.96275 | 76.92896 | 15232 ft | 323 kts | 349° |
| 2026-04-28 14:46 | 27.98499 | 76.92628 | 14839 ft | 321 kts | 349° |
| 2026-04-28 14:46 | 28.00711 | 76.92358 | 14444 ft | 319 kts | 349° |
| 2026-04-28 14:46 | 28.02911 | 76.92089 | 14060 ft | 317 kts | 349° |
| 2026-04-28 14:47 | 28.05101 | 76.91821 | 13662 ft | 315 kts | 349° |
| 2026-04-28 14:47 | 28.07275 | 76.91555 | 13238 ft | 313 kts | 349° |
| 2026-04-28 14:47 | 28.09438 | 76.91294 | 12829 ft | 311 kts | 349° |
| 2026-04-28 14:47 | 28.11583 | 76.91037 | 12435 ft | 310 kts | 349° |
| 2026-04-28 14:48 | 28.13725 | 76.90780 | 12043 ft | 308 kts | 349° |
| 2026-04-28 14:48 | 28.15848 | 76.90528 | 11638 ft | 306 kts | 349° |
| 2026-04-28 14:48 | 28.17963 | 76.90275 | 11246 ft | 305 kts | 349° |
| 2026-04-28 14:48 | 28.20064 | 76.90019 | 10845 ft | 303 kts | 349° |
| 2026-04-28 14:49 | 28.22157 | 76.89762 | 10439 ft | 301 kts | 349° |
| 2026-04-28 14:49 | 28.24234 | 76.89506 | 10051 ft | 299 kts | 349° |
| 2026-04-28 14:49 | 28.26278 | 76.89257 | 9941 ft | 294 kts | 349° |
| 2026-04-28 14:49 | 28.28315 | 76.89010 | 9809 ft | 294 kts | 349° |
| 2026-04-28 14:50 | 28.30348 | 76.88764 | 9685 ft | 293 kts | 349° |
| 2026-04-28 14:50 | 28.32395 | 76.88515 | 9146 ft | 298 kts | 350° |
| 2026-04-28 14:50 | 28.34438 | 76.88271 | 8801 ft | 293 kts | 350° |
| 2026-04-28 14:50 | 28.36451 | 76.88032 | 8310 ft | 288 kts | 350° |
| 2026-04-28 14:51 | 28.38431 | 76.87793 | 7491 ft | 285 kts | 351° |
| 2026-04-28 14:51 | 28.40382 | 76.87554 | 6884 ft | 279 kts | 351° |
| 2026-04-28 14:51 | 28.42316 | 76.87318 | 6344 ft | 279 kts | 352° |
| 2026-04-28 14:51 | 28.44231 | 76.87086 | 5790 ft | 275 kts | 352° |
| 2026-04-28 14:52 | 28.46098 | 76.86860 | 5460 ft | 272 kts | 352° |
| 2026-04-28 14:52 | 28.47980 | 76.86631 | 5156 ft | 266 kts | 352° |
| 2026-04-28 14:52 | 28.49744 | 76.86419 | 4920 ft | 242 kts | 352° |
| 2026-04-28 14:52 | 28.51349 | 76.86229 | 4679 ft | 226 kts | 352° |
| 2026-04-28 14:53 | 28.52881 | 76.86044 | 4312 ft | 218 kts | 352° |
| 2026-04-28 14:53 | 28.54390 | 76.86122 | 3897 ft | 215 kts | 10° |
| 2026-04-28 14:53 | 28.55704 | 76.86740 | 3828 ft | 194 kts | 28° |
| 2026-04-28 14:53 | 28.56732 | 76.87726 | 3750 ft | 199 kts | 45° |
| 2026-04-28 14:54 | 28.57491 | 76.89059 | 3623 ft | 203 kts | 63° |
| 2026-04-28 14:54 | 28.57861 | 76.90618 | 3433 ft | 206 kts | 82° |
| 2026-04-28 14:54 | 28.57768 | 76.92244 | 3221 ft | 208 kts | 102° |
| 2026-04-28 14:54 | 28.57428 | 76.93834 | 2975 ft | 206 kts | 102° |
| 2026-04-28 14:55 | 28.57092 | 76.95413 | 2721 ft | 203 kts | 102° |
| 2026-04-28 14:55 | 28.56772 | 76.96911 | 2473 ft | 189 kts | 102° |
| 2026-04-28 14:55 | 28.56470 | 76.98330 | 2249 ft | 182 kts | 102° |
| 2026-04-28 14:55 | 28.56173 | 76.99721 | 2022 ft | 180 kts | 102° |
| 2026-04-28 14:56 | 28.55879 | 77.01102 | 1800 ft | 178 kts | 102° |
| 2026-04-28 14:56 | 28.55586 | 77.02471 | 1593 ft | 177 kts | 102° |
| 2026-04-28 14:56 | 28.55299 | 77.03818 | 1365 ft | 171 kts | 103° |
| 2026-04-28 14:56 | 28.55025 | 77.05086 | 1151 ft | 162 kts | 102° |
| 2026-04-28 14:57 | 28.54763 | 77.06309 | 951 ft | 157 kts | 103° |
| 2026-04-28 14:57 | 28.54596 | 77.07103 | 811 ft | 155 kts | 102° |
| 2026-04-28 14:57 | 28.54296 | 77.08519 | 763 ft | 105 kts | 103° |
| 2026-04-28 14:57 | 28.54169 | 77.09127 | 760 ft | 54 kts | 102° |
| 2026-04-28 14:58 | 28.54152 | 77.09394 | 758 ft | 19 kts | 80° |
| 2026-04-28 14:58 | 28.54173 | 77.09502 | 762 ft | 9 kts | 76° |
| 2026-04-28 14:58 | 28.54198 | 77.09545 | 764 ft | 4 kts | 31° |
| 2026-04-28 14:58 | 28.54244 | 77.09533 | 765 ft | 14 kts | 319° |
| 2026-04-28 14:59 | 28.54280 | 77.09399 | 765 ft | 20 kts | 283° |
| 2026-04-28 14:59 | 28.54314 | 77.09244 | 766 ft | 20 kts | 284° |
| 2026-04-28 14:59 | 28.54348 | 77.09090 | 767 ft | 20 kts | 284° |
| 2026-04-28 14:59 | 28.54382 | 77.08938 | 768 ft | 20 kts | 283° |
| 2026-04-28 15:00 | 28.54412 | 77.08787 | 768 ft | 20 kts | 282° |
| 2026-04-28 15:00 | 28.54461 | 77.08675 | 767 ft | 14 kts | 339° |
| 2026-04-28 15:00 | 28.54565 | 77.08694 | 763 ft | 17 kts | 15° |
| 2026-04-28 15:00 | 28.54681 | 77.08733 | 765 ft | 17 kts | 17° |
| 2026-04-28 15:01 | 28.54781 | 77.08751 | 770 ft | 13 kts | 348° |
| 2026-04-28 15:01 | 28.54826 | 77.08680 | 770 ft | 11 kts | 285° |
| 2026-04-28 15:01 | 28.54846 | 77.08595 | 770 ft | 11 kts | 284° |
| 2026-04-28 15:01 | 28.54879 | 77.08455 | 771 ft | 26 kts | 285° |
| 2026-04-28 15:02 | 28.54926 | 77.08258 | 771 ft | 22 kts | 284° |
| 2026-04-28 15:02 | 28.54962 | 77.08092 | 771 ft | 21 kts | 285° |
| 2026-04-28 15:02 | 28.55000 | 77.07932 | 771 ft | 21 kts | 284° |
| 2026-04-28 15:02 | 28.55035 | 77.07775 | 771 ft | 20 kts | 284° |
| 2026-04-28 15:03 | 28.55074 | 77.07637 | 772 ft | 14 kts | 307° |
| 2026-04-28 15:03 | 28.55157 | 77.07631 | 772 ft | 14 kts | 14° |
| 2026-04-28 15:03 | 28.55287 | 77.07668 | 773 ft | 25 kts | 14° |
| 2026-04-28 15:03 | 28.55474 | 77.07721 | 773 ft | 26 kts | 14° |
| 2026-04-28 15:04 | 28.55597 | 77.07754 | 773 ft | 14 kts | 14° |
| 2026-04-28 15:04 | 28.55640 | 77.07833 | 773 ft | 12 kts | 99° |
| 2026-04-28 15:04 | 28.55623 | 77.07903 | 773 ft | 4 kts | 103° |
| 2026-04-28 15:04 | 28.55618 | 77.07928 | 773 ft | 3 kts | 103° |
| 2026-04-28 15:05 | 28.55617 | 77.07934 | 773 ft | 0 kts | 103° |